Time;durP1;ratioP1;P1;durP2;ratioP2;P2;SDS_P1;SDS_P2;PMS_P1;PMS_P2;Temp;Humidity;BMP_temperature;BMP_pressure;BME280_temperature;BME280_humidity;BME280_pressure;Samples;Min_cycle;Max_cycle;Signal;HPM_P1;HPM_P2
2021/12/05 00:19:59;;;;;;;47.50;25.60;;;;;;;-1.37;69.45;98937.98;103175;1330;93441;-63
2021/12/05 00:22:37;;;;;;;49.90;26.90;;;;;;;-1.34;69.57;98938.49;103028;1324;137480;-66
2021/12/05 00:25:14;;;;;;;50.90;26.90;;;;;;;-1.35;69.65;98940.88;103818;1321;109765;-66
2021/12/05 00:27:53;;;;;;;52.30;27.20;;;;;;;-1.38;69.69;98941.74;102867;1324;109051;-66
2021/12/05 00:30:47;;;;;;;52.40;27.20;;;;;;;-1.39;69.72;98944.83;102906;1325;138009;-66
2021/12/05 00:33:37;;;;;;;46.80;27.10;;;;;;;-1.42;69.56;98951.16;104369;1318;94541;-66
2021/12/05 00:45:35;;;;;;;47.90;25.80;;;;;;;-1.46;70.19;98952.17;103000;1321;108780;-65
2021/12/05 00:59:39;;;;;;;51.20;27.80;;;;;;;-1.54;70.70;98964.00;103707;1317;138445;-66
2021/12/05 01:02:20;;;;;;;49.70;26.50;;;;;;;-1.61;70.34;98964.19;103442;1317;94896;-66
2021/12/05 01:10:53;;;;;;;48.50;26.20;;;;;;;-1.70;70.55;98980.91;103067;1316;138663;-66
2021/12/05 01:13:32;;;;;;;47.20;26.20;;;;;;;-1.68;70.90;98982.95;103069;1318;108137;-66
2021/12/05 01:16:12;;;;;;;49.60;27.60;;;;;;;-1.69;71.30;98980.40;103107;1318;95356;-66
2021/12/05 01:18:45;;;;;;;49.30;26.80;;;;;;;-1.71;71.22;98983.98;104381;1312;138032;-67
2021/12/05 01:21:22;;;;;;;47.00;27.00;;;;;;;-1.73;71.31;98984.17;104335;1314;109763;-67
2021/12/05 01:24:01;;;;;;;47.10;26.70;;;;;;;-1.77;71.44;98979.92;103283;1315;138042;-67
2021/12/05 01:26:38;;;;;;;45.90;25.80;;;;;;;-1.84;71.31;98983.50;103368;1313;108514;-67
2021/12/05 01:29:27;;;;;;;46.90;25.10;;;;;;;-1.88;71.61;98984.38;103123;1314;138675;-67
2021/12/05 01:32:11;;;;;;;42.40;23.00;;;;;;;-1.89;71.84;98984.72;103323;1314;95278;-66
2021/12/05 01:34:56;;;;;;;43.80;23.10;;;;;;;-1.89;71.79;98983.02;103336;1312;138313;-68
2021/12/05 01:37:39;;;;;;;;;;;;;;;-1.87;71.67;98980.96;103936;1314;107707;-68
2021/12/05 01:46:25;;;;;;;46.60;24.90;;;;;;;-1.89;71.98;98968.36;103769;1318;93826;-67
2021/12/05 01:49:13;;;;;;;47.80;26.10;;;;;;;-1.90;71.72;98962.06;103149;1315;137539;-66
2021/12/05 02:09:08;;;;;;;45.10;24.50;;;;;;;-1.66;71.96;98955.16;102881;1318;107621;-67
2021/12/05 02:11:58;;;;;;;50.00;26.30;;;;;;;-1.68;72.01;98958.41;102846;1317;138164;-66
2021/12/05 02:32:10;;;;;;;41.30;24.70;;;;;;;-1.58;72.26;98957.70;102966;1317;109812;-66
2021/12/05 02:34:52;;;;;;;43.00;24.50;;;;;;;-1.55;71.72;98959.39;103071;1314;107988;-66
2021/12/05 02:37:51;;;;;;;44.30;24.90;;;;;;;-1.54;72.03;98964.67;103267;1315;137471;-67
2021/12/05 02:40:30;;;;;;;41.90;23.70;;;;;;;-1.53;72.06;98970.97;103284;1314;95210;-67
2021/12/05 02:43:08;;;;;;;43.50;24.30;;;;;;;-1.50;71.85;98969.41;103173;1316;138106;-66
2021/12/05 02:45:46;;;;;;;41.40;23.50;;;;;;;-1.46;71.57;98965.14;103145;1315;109816;-66
2021/12/05 02:48:21;;;;;;;42.90;24.30;;;;;;;-1.42;71.95;98959.33;103193;1316;137917;-65
2021/12/05 02:50:54;;;;;;;45.60;25.00;;;;;;;-1.40;71.58;98960.69;103610;1315;108080;-66
2021/12/05 02:53:33;;;;;;;41.80;23.60;;;;;;;-1.39;71.96;98958.82;103028;1315;137708;-66
2021/12/05 02:56:08;;;;;;;45.20;25.80;;;;;;;-1.41;71.87;98951.15;103166;1315;95184;-67
2021/12/05 02:58:45;;;;;;;48.70;25.70;;;;;;;-1.41;71.60;98946.71;103237;1318;109797;-67
2021/12/05 03:01:45;;;;;;;43.70;23.30;;;;;;;-1.42;71.62;98949.27;103873;1302;139203;-65
2021/12/05 03:04:18;;;;;;;47.90;24.30;;;;;;;-1.45;71.70;98944.84;102815;1315;108681;-65
2021/12/05 03:06:54;;;;;;;44.80;24.20;;;;;;;-1.42;71.56;98946.05;103049;1315;138939;-65
2021/12/05 03:09:26;;;;;;;43.60;23.90;;;;;;;-1.41;71.56;98940.41;104536;1314;96403;-66
2021/12/05 03:12:01;;;;;;;44.40;24.40;;;;;;;-1.36;71.66;98936.96;103044;1316;138037;-65
2021/12/05 03:14:35;;;;;;;46.00;26.20;;;;;;;-1.31;71.76;98942.21;103142;1315;108983;-65
2021/12/05 03:17:08;;;;;;;45.70;25.50;;;;;;;-1.33;71.61;98934.39;103264;1313;109084;-65
2021/12/05 03:19:41;;;;;;;48.40;26.10;;;;;;;-1.37;71.50;98934.08;103016;1314;137970;-67
2021/12/05 03:22:13;;;;;;;53.20;27.10;;;;;;;-1.38;71.75;98933.23;103292;1314;96504;-66
2021/12/05 03:24:48;;;;;;;47.20;25.00;;;;;;;-1.43;71.70;98937.35;104366;1317;137640;-66
2021/12/05 03:27:21;;;;;;;44.90;23.60;;;;;;;-1.47;71.78;98940.08;104068;1317;109191;-66
2021/12/05 03:29:54;;;;;;;44.40;24.10;;;;;;;-1.46;71.42;98942.80;104208;1316;138496;-67
2021/12/05 03:32:27;;;;;;;40.90;23.60;;;;;;;-1.44;71.81;98940.23;103457;1317;94895;-66
2021/12/05 03:34:59;;;;;;;42.90;23.70;;;;;;;-1.44;71.54;98941.77;103711;1316;94865;-66
2021/12/05 03:37:32;;;;;;;43.30;23.90;;;;;;;-1.44;71.76;98937.34;103238;1314;137479;-66
2021/12/05 03:40:08;;;;;;;46.20;25.00;;;;;;;-1.46;71.56;98938.88;103180;1317;109129;-67
2021/12/05 03:42:40;;;;;;;47.00;26.20;;;;;;;-1.52;71.44;98935.51;103939;1315;137655;-67
2021/12/05 03:45:25;;;;;;;42.80;23.80;;;;;;;-1.60;71.63;98945.11;103185;1314;96636;-66
2021/12/05 03:47:59;;;;;;;45.20;23.70;;;;;;;-1.64;71.90;98953.27;103131;1313;138468;-65
2021/12/05 03:50:31;;;;;;;43.70;24.00;;;;;;;-1.67;71.86;98961.30;103178;1315;110913;-65
2021/12/05 03:53:06;;;;;;;42.50;23.30;;;;;;;-1.68;71.88;98958.75;104523;1313;108879;-66
2021/12/05 03:55:43;;;;;;;41.70;23.40;;;;;;;-1.71;71.96;98945.31;103075;1314;137583;-65
2021/12/05 03:58:17;;;;;;;40.00;23.50;;;;;;;-1.74;72.09;98944.64;104637;1313;94751;-66
2021/12/05 04:00:53;;;;;;;45.10;25.60;;;;;;;-1.77;72.07;98945.67;103402;1315;137905;-65
2021/12/05 04:03:26;;;;;;;;;;;;;;;-1.83;72.15;98951.30;103067;1311;111148;-66
2021/12/05 04:06:02;;;;;;;43.60;25.20;;;;;;;-1.88;72.25;98951.66;103007;1315;124094;-65
2021/12/05 04:08:39;;;;;;;41.50;23.40;;;;;;;-1.95;72.64;98952.55;103191;1316;108986;-67
2021/12/05 04:11:17;;;;;;;43.20;24.00;;;;;;;-2.01;72.65;98937.21;104496;1315;95689;-66
2021/12/05 04:13:50;;;;;;;37.00;21.50;;;;;;;-2.03;72.95;98938.24;103217;1314;138184;-66
2021/12/05 04:16:25;;;;;;;39.60;22.80;;;;;;;-2.04;72.58;98935.35;103523;1310;110123;-65
2021/12/05 04:18:58;;;;;;;40.80;23.90;;;;;;;-2.03;72.86;98935.02;103492;1316;138032;-66
2021/12/05 04:21:31;;;;;;;47.10;24.50;;;;;;;-2.02;72.94;98943.69;103585;1313;109178;-66
2021/12/05 04:24:07;;;;;;;44.60;25.10;;;;;;;-2.02;73.18;98944.04;103122;1316;139108;-67
2021/12/05 04:26:40;;;;;;;42.90;26.10;;;;;;;-2.03;72.72;98950.51;104024;1317;94609;-66
2021/12/05 04:29:13;;;;;;;46.70;24.20;;;;;;;-2.06;73.04;98960.05;103711;1320;111266;-66
2021/12/05 04:31:46;;;;;;;42.40;23.80;;;;;;;-2.10;73.00;98964.84;103332;1313;138619;-66
2021/12/05 04:34:18;;;;;;;40.60;23.10;;;;;;;-2.11;72.91;98969.95;104111;1318;108877;-66
2021/12/05 04:36:55;;;;;;;42.40;24.40;;;;;;;-2.11;73.10;98971.15;103528;1318;138616;-67
2021/12/05 04:39:31;;;;;;;41.50;24.20;;;;;;;-2.09;72.98;98970.98;103839;1315;94650;-66
2021/12/05 04:42:04;;;;;;;44.10;23.30;;;;;;;-2.08;73.33;98980.33;103239;1324;138254;-67
2021/12/05 04:44:36;;;;;;;43.90;25.40;;;;;;;-2.05;73.38;98979.13;103534;1315;107609;-66
2021/12/05 04:47:09;;;;;;;45.70;25.40;;;;;;;-2.06;73.32;98973.16;103149;1316;108754;-67
2021/12/05 04:49:42;;;;;;;42.80;24.30;;;;;;;-2.06;73.42;98978.45;103612;1315;138141;-67
2021/12/05 04:52:17;;;;;;;42.70;23.70;;;;;;;-2.08;73.44;98987.83;103304;1316;96511;-67
2021/12/05 04:54:49;;;;;;;38.50;22.70;;;;;;;-2.11;73.29;98987.49;104281;1314;138135;-67
2021/12/05 04:57:23;;;;;;;40.40;22.20;;;;;;;-2.14;73.45;98995.33;104480;1315;109302;-67
2021/12/05 04:59:56;;;;;;;39.20;22.60;;;;;;;-2.14;73.82;98997.38;104340;1314;139423;-65
2021/12/05 05:02:28;;;;;;;41.60;23.50;;;;;;;-2.11;73.66;98999.23;103785;1318;95851;-67
2021/12/05 05:05:00;;;;;;;39.70;23.30;;;;;;;-2.09;73.54;98990.55;104399;1315;94755;-67
2021/12/05 05:07:33;;;;;;;40.20;23.40;;;;;;;-2.08;73.45;98985.27;104138;1312;138558;-67
2021/12/05 05:10:10;;;;;;;43.70;24.40;;;;;;;-2.06;73.59;98981.34;103972;1312;109084;-67
2021/12/05 05:12:43;;;;;;;43.90;25.60;;;;;;;-2.07;73.40;98984.92;103830;1314;138294;-66
2021/12/05 05:15:22;;;;;;;44.30;25.80;;;;;;;-2.07;73.70;98992.59;104532;1313;95465;-65
2021/12/05 05:17:56;;;;;;;44.40;24.80;;;;;;;-2.09;73.85;98994.30;104022;1316;138205;-65
2021/12/05 05:20:35;;;;;;;39.50;23.80;;;;;;;-2.14;73.72;98992.09;103208;1315;111887;-67
2021/12/05 05:23:23;;;;;;;42.10;23.10;;;;;;;-2.18;73.85;98985.44;103315;1324;106816;-65
2021/12/05 05:29:24;;;;;;;42.10;24.70;;;;;;;-2.19;74.05;98992.25;103625;1321;96617;-65
2021/12/05 05:40:50;;;;;;;38.70;23.50;;;;;;;-2.22;74.08;98980.17;102813;1320;109049;-65
2021/12/05 05:43:35;;;;;;;43.50;23.80;;;;;;;-2.19;74.13;98976.23;103072;1323;138398;-66
2021/12/05 05:46:12;;;;;;;39.70;23.60;;;;;;;-2.13;74.20;98976.61;103824;1323;95021;-66
2021/12/05 05:48:50;;;;;;;41.60;23.30;;;;;;;-2.10;74.18;98981.86;103779;1321;137895;-66
2021/12/05 05:51:22;;;;;;;41.30;24.70;;;;;;;-2.09;74.08;98976.08;103901;1321;109169;-66
2021/12/05 05:53:54;;;;;;;46.30;25.40;;;;;;;-2.08;73.89;98977.77;103693;1323;163367;-66
2021/12/05 05:56:29;;;;;;;41.70;25.20;;;;;;;-2.09;74.09;98980.67;103953;1321;94580;-66
2021/12/05 05:59:06;;;;;;;41.70;24.40;;;;;;;-2.12;73.87;98979.66;103926;1321;94877;-66
2021/12/05 06:01:59;;;;;;;40.70;23.80;;;;;;;-2.13;74.00;98981.37;103438;1321;138976;-66
2021/12/05 06:04:32;;;;;;;37.80;22.60;;;;;;;-2.12;73.93;98983.75;103819;1323;109046;-67
2021/12/05 06:07:07;;;;;;;40.60;23.60;;;;;;;-2.08;74.26;98983.91;103783;1315;138477;-66
2021/12/05 06:09:40;;;;;;;40.90;24.60;;;;;;;-2.06;73.99;98983.56;103177;1314;96494;-66
2021/12/05 06:12:13;;;;;;;40.20;23.70;;;;;;;-2.01;73.90;98983.89;104508;1317;138022;-66
2021/12/05 06:14:46;;;;;;;42.90;25.40;;;;;;;-1.99;73.75;98980.81;104456;1314;111140;-67
2021/12/05 06:17:18;;;;;;;47.30;26.20;;;;;;;-1.97;73.63;98986.45;104551;1316;109264;-66
2021/12/05 06:19:51;;;;;;;44.80;26.40;;;;;;;-1.99;74.01;98991.02;104461;1314;139040;-66
2021/12/05 06:22:23;;;;;;;44.80;25.60;;;;;;;-2.03;73.71;98991.39;104498;1315;94481;-66
2021/12/05 06:24:57;;;;;;;37.70;23.90;;;;;;;-2.06;73.70;98991.91;103863;1314;138591;-66
2021/12/05 06:27:30;;;;;;;43.30;24.70;;;;;;;-2.06;73.69;98994.45;103279;1315;111223;-66
2021/12/05 06:30:10;;;;;;;41.10;24.00;;;;;;;-2.04;73.62;98999.22;103352;1313;138724;-66
2021/12/05 06:38:58;;;;;;;43.50;25.60;;;;;;;-1.99;73.65;99002.78;104308;1317;94836;-66
2021/12/05 06:41:51;;;;;;;47.00;27.00;;;;;;;-2.00;73.72;99013.34;104406;1318;111395;-67
2021/12/05 06:47:14;;;;;;;44.30;25.90;;;;;;;-2.02;73.62;99020.84;104206;1318;109354;-66
2021/12/05 06:49:47;;;;;;;44.90;26.30;;;;;;;-2.03;73.69;99020.34;102840;1318;138571;-66
2021/12/05 06:52:39;;;;;;;39.90;23.60;;;;;;;-2.02;73.70;99023.91;102980;1318;96707;-67
2021/12/05 06:55:14;;;;;;;38.80;23.50;;;;;;;-2.01;73.71;99030.38;104288;1319;138517;-67
2021/12/05 06:57:47;;;;;;;43.40;24.90;;;;;;;-1.97;73.71;99031.41;103187;1318;107340;-70
2021/12/05 07:00:23;;;;;;;42.50;25.10;;;;;;;-1.89;73.67;99027.31;103882;1318;138162;-67
2021/12/05 07:02:55;;;;;;;45.00;25.80;;;;;;;-1.85;73.66;99035.31;103075;1318;96573;-66
2021/12/05 07:05:45;;;;;;;44.10;26.00;;;;;;;-1.84;73.30;99039.56;102981;1316;96506;-66
2021/12/05 07:08:19;;;;;;;45.20;25.20;;;;;;;-1.81;73.50;99040.07;102944;1322;137249;-66
2021/12/05 07:10:58;;;;;;;45.40;26.40;;;;;;;-1.76;73.44;99043.31;103707;1319;108732;-67
2021/12/05 07:14:05;;;;;;;46.80;25.60;;;;;;;-1.70;73.35;99046.87;103111;1315;138140;-66
2021/12/05 07:16:43;;;;;;;45.80;24.20;;;;;;;-1.62;73.37;99045.81;104461;1314;96549;-67
2021/12/05 07:22:13;;;;;;;;;;;;;;;-1.42;73.32;99053.27;103247;1314;111392;-67
2021/12/05 07:24:50;;;;;;;49.40;24.80;;;;;;;-1.28;73.22;99053.39;103206;1314;123713;-65
2021/12/05 07:41:50;;;;;;;44.80;25.00;;;;;;;-0.75;71.80;99048.86;104198;1324;108901;-65
2021/12/05 07:44:23;;;;;;;45.50;26.00;;;;;;;-0.67;71.42;99046.10;104061;1319;138145;-65
2021/12/05 07:46:56;;;;;;;48.20;27.00;;;;;;;-0.62;71.72;99046.39;103607;1322;96414;-67
2021/12/05 07:49:28;;;;;;;45.10;27.00;;;;;;;-0.56;71.33;99047.89;103135;1326;137867;-64
2021/12/05 07:52:00;;;;;;;40.50;24.30;;;;;;;-0.47;71.39;99046.82;103745;1319;108119;-66
2021/12/05 07:54:38;;;;;;;39.50;23.40;;;;;;;-0.38;71.36;99044.54;103419;1320;138849;-66
2021/12/05 07:57:18;;;;;;;48.40;27.50;;;;;;;-0.25;71.23;99044.60;104196;1319;94742;-66
2021/12/05 08:00:03;;;;;;;39.80;23.40;;;;;;;-0.12;71.10;99041.77;103333;1324;96562;-66
2021/12/05 08:16:49;;;;;;;44.80;27.30;;;;;;;0.10;69.52;99062.08;103196;1314;111125;-65
2021/12/05 08:19:22;;;;;;;47.70;27.10;;;;;;;0.01;68.79;99055.67;103152;1315;137401;-65
2021/12/05 08:21:55;;;;;;;46.10;27.90;;;;;;;-0.10;68.83;99055.41;103139;1317;108709;-66
2021/12/05 08:24:32;;;;;;;48.30;28.00;;;;;;;-0.19;69.05;99059.25;104397;1315;138222;-66
2021/12/05 08:27:05;;;;;;;;;;;;;;;-0.27;69.06;99062.05;104426;1314;96413;-66
2021/12/05 08:29:44;;;;;;;48.40;26.70;;;;;;;-0.37;69.19;99073.04;103256;1318;111509;-66
2021/12/05 08:32:30;;;;;;;50.80;30.30;;;;;;;-0.47;69.05;99073.12;103338;1315;137504;-66
2021/12/05 08:35:15;;;;;;;44.60;26.10;;;;;;;-0.50;69.64;99066.98;104494;1314;109268;-66
2021/12/05 08:43:53;;;;;;;48.40;25.50;;;;;;;-0.47;69.32;99076.70;103090;1315;138040;-67
2021/12/05 09:21:02;;;;;;;40.30;24.60;;;;;;;-0.49;69.51;99081.50;102565;1320;137887;-67
2021/12/05 09:26:43;;;;;;;41.10;25.70;;;;;;;-0.52;69.29;99083.91;102657;1317;137804;-66
2021/12/05 09:29:40;;;;;;;42.30;25.20;;;;;;;-0.53;69.21;99084.43;102740;1321;108867;-67
2021/12/05 10:06:50;;;;;;;45.00;25.00;;;;;;;0.67;67.86;99084.41;104002;1321;137408;-68
2021/12/05 10:09:49;;;;;;;43.10;24.20;;;;;;;0.77;68.15;99082.94;103628;1320;111142;-67
2021/12/05 10:15:32;;;;;;;42.80;24.80;;;;;;;0.92;67.15;99075.77;102925;1315;109008;-67
2021/12/05 10:27:23;;;;;;;45.40;27.10;;;;;;;1.05;67.53;99064.79;104271;1315;137131;-67
2021/12/05 10:36:05;;;;;;;50.90;28.30;;;;;;;1.14;67.25;99068.80;103490;1315;97300;-67
2021/12/05 10:38:44;;;;;;;49.80;28.50;;;;;;;1.15;67.28;99061.60;103714;1319;138024;-67
2021/12/05 10:44:16;;;;;;;48.90;28.70;;;;;;;1.16;67.04;99066.02;103398;1315;137670;-67
2021/12/05 10:46:50;;;;;;;44.80;26.80;;;;;;;1.11;66.84;99067.80;103817;1315;96550;-67
2021/12/05 10:49:23;;;;;;;44.00;26.40;;;;;;;1.07;67.00;99066.99;103074;1314;138652;-67
2021/12/05 10:51:57;;;;;;;46.10;26.00;;;;;;;1.05;66.80;99066.84;103217;1315;111314;-66
2021/12/05 10:54:30;;;;;;;43.40;25.60;;;;;;;1.04;67.07;99065.83;104606;1314;107963;-67
2021/12/05 10:57:04;;;;;;;48.60;26.40;;;;;;;1.07;66.98;99057.59;104418;1315;137331;-67
2021/12/05 10:59:40;;;;;;;45.50;26.50;;;;;;;1.10;66.88;99053.45;103820;1316;96427;-66
2021/12/05 11:02:14;;;;;;;50.50;27.50;;;;;;;1.12;66.96;99055.48;104480;1316;137453;-67
2021/12/05 11:04:50;;;;;;;48.50;27.90;;;;;;;1.13;66.80;99057.17;103676;1316;111311;-67
2021/12/05 11:07:24;;;;;;;48.40;27.50;;;;;;;1.11;66.74;99052.41;103196;1315;139038;-66
2021/12/05 11:09:59;;;;;;;47.40;27.30;;;;;;;1.07;66.72;99050.56;104457;1316;107745;-67
2021/12/05 11:12:34;;;;;;;46.40;26.90;;;;;;;1.01;66.57;99050.64;104575;1316;94752;-67
2021/12/05 11:15:13;;;;;;;48.40;27.60;;;;;;;0.96;66.76;99053.96;104266;1317;137214;-67
2021/12/05 11:17:47;;;;;;;48.70;28.40;;;;;;;0.94;66.72;99058.29;103460;1315;110915;-67
2021/12/05 11:20:31;;;;;;;51.40;28.50;;;;;;;0.90;66.93;99063.27;103104;1314;137847;-67
2021/12/05 11:23:04;;;;;;;46.50;28.40;;;;;;;0.87;66.91;99066.38;103807;1316;108378;-68
2021/12/05 11:25:40;;;;;;;51.80;28.10;;;;;;;0.84;66.89;99069.16;103635;1315;137483;-67
2021/12/05 11:28:24;;;;;;;53.40;30.40;;;;;;;0.82;66.69;99068.17;104322;1315;94871;-66
2021/12/05 11:30:58;;;;;;;50.90;29.00;;;;;;;0.77;66.96;99069.95;103163;1315;137703;-67
2021/12/05 11:33:31;;;;;;;51.00;27.70;;;;;;;0.73;67.03;99068.79;104209;1315;108905;-67
2021/12/05 11:36:05;;;;;;;45.80;27.20;;;;;;;0.70;67.09;99071.20;104493;1312;109142;-67
2021/12/05 11:38:38;;;;;;;49.00;26.90;;;;;;;0.67;67.10;99067.99;104242;1316;138378;-67
2021/12/05 11:41:14;;;;;;;57.40;30.40;;;;;;;0.68;67.73;99071.06;103235;1314;97132;-66
2021/12/05 11:43:51;;;;;;;49.00;29.20;;;;;;;0.72;67.55;99075.14;103074;1314;138907;-65
2021/12/05 11:46:27;;;;;;;47.20;27.50;;;;;;;0.78;67.54;99077.63;103666;1313;105713;-66
2021/12/05 11:49:03;;;;;;;50.30;27.50;;;;;;;0.85;67.51;99076.01;103772;1314;138474;-67
2021/12/05 11:51:37;;;;;;;50.20;27.20;;;;;;;0.89;67.21;99073.05;104410;1317;94801;-66
2021/12/05 11:54:12;;;;;;;50.60;28.30;;;;;;;0.91;67.38;99071.84;103430;1313;96550;-66
2021/12/05 11:56:54;;;;;;;55.60;29.60;;;;;;;0.94;67.42;99073.86;103096;1315;137502;-66
2021/12/05 11:59:29;;;;;;;47.60;28.60;;;;;;;0.95;67.31;99074.70;103211;1315;108953;-66
2021/12/05 12:02:05;;;;;;;54.40;29.70;;;;;;;0.94;67.08;99071.80;103156;1315;137450;-67
2021/12/05 12:04:45;;;;;;;49.40;28.90;;;;;;;0.96;67.25;99065.43;103645;1318;94432;-65
2021/12/05 12:07:32;;;;;;;52.20;30.10;;;;;;;0.96;67.46;99063.55;104501;1315;138617;-66
2021/12/05 12:10:11;;;;;;;57.60;30.40;;;;;;;0.96;67.36;99051.40;103296;1315;111511;-66
2021/12/05 12:12:46;;;;;;;58.20;32.60;;;;;;;0.97;67.76;99042.66;103320;1314;137739;-66
2021/12/05 12:15:20;;;;;;;58.70;33.60;;;;;;;0.95;67.54;99043.02;103926;1314;109234;-67
2021/12/05 12:17:55;;;;;;;53.80;32.10;;;;;;;0.92;67.52;99042.23;104592;1315;95489;-66
2021/12/05 12:20:29;;;;;;;55.10;32.10;;;;;;;0.91;67.72;99036.08;104465;1315;137295;-66
2021/12/05 12:23:02;;;;;;;52.80;31.00;;;;;;;0.90;67.81;99033.01;104500;1315;111027;-67
2021/12/05 12:25:37;;;;;;;54.00;31.20;;;;;;;0.88;68.08;99025.98;103933;1315;138109;-66
2021/12/05 12:28:11;;;;;;;52.90;29.20;;;;;;;0.87;68.03;99028.23;104565;1314;107919;-67
2021/12/05 12:30:46;;;;;;;49.50;28.50;;;;;;;0.87;68.35;99041.91;104424;1314;138326;-68
2021/12/05 12:33:22;;;;;;;47.50;29.90;;;;;;;0.92;68.43;99038.63;104524;1314;94610;-66
2021/12/05 12:35:55;;;;;;;50.90;28.40;;;;;;;0.97;68.52;99035.30;104566;1315;111347;-67
2021/12/05 12:38:37;;;;;;;51.00;29.60;;;;;;;0.99;68.71;99029.80;103662;1315;136517;-67
2021/12/05 12:41:18;;;;;;;55.90;30.40;;;;;;;0.97;68.59;99033.08;103778;1315;108790;-66
2021/12/05 12:43:55;;;;;;;48.20;29.10;;;;;;;0.95;68.82;99037.04;103347;1315;139243;-66
2021/12/05 12:46:32;;;;;;;49.70;28.90;;;;;;;0.95;68.95;99038.08;103427;1315;96596;-66
2021/12/05 12:49:26;;;;;;;49.80;28.70;;;;;;;0.91;69.04;99044.11;103628;1320;137581;-66
2021/12/05 12:52:05;;;;;;;47.70;27.10;;;;;;;0.83;69.24;99051.20;103648;1318;109001;-67
2021/12/05 12:54:42;;;;;;;50.50;26.90;;;;;;;0.69;69.14;99058.39;104328;1319;109253;-67
2021/12/05 12:57:19;;;;;;;43.10;25.90;;;;;;;0.58;69.74;99062.28;104362;1316;139133;-67
2021/12/05 13:00:00;;;;;;;45.10;25.30;;;;;;;0.51;69.99;99063.88;104498;1315;94874;-66
2021/12/05 13:02:52;;;;;;;47.30;26.20;;;;;;;0.46;70.26;99065.83;103895;1314;138262;-67
2021/12/05 13:07:16;;;;;;;44.10;25.50;;;;;;;0.43;70.57;99072.70;104478;1315;107839;-66
2021/12/05 13:11:51;;;;;;;41.10;25.20;;;;;;;0.26;70.91;99073.38;103242;1317;96556;-67
2021/12/05 13:14:23;;;;;;;45.40;24.80;;;;;;;0.17;70.94;99077.91;103076;1315;138504;-67
2021/12/05 13:16:56;;;;;;;42.60;24.50;;;;;;;0.09;71.22;99079.34;103223;1315;111152;-68
2021/12/05 13:19:30;;;;;;;39.40;23.80;;;;;;;0.07;71.43;99080.39;103179;1317;139414;-70
2021/12/05 13:22:08;;;;;;;46.20;26.30;;;;;;;0.09;71.86;99091.48;103261;1314;108984;-67
2021/12/05 13:24:44;;;;;;;38.90;23.10;;;;;;;0.13;71.91;99097.44;103233;1315;96489;-65
2021/12/05 13:27:32;;;;;;;43.80;25.30;;;;;;;0.19;71.84;99100.29;103075;1315;137329;-67
2021/12/05 13:30:04;;;;;;;45.80;26.10;;;;;;;0.29;72.39;99106.86;104402;1315;110394;-67
2021/12/05 13:32:37;;;;;;;41.80;24.90;;;;;;;0.37;72.53;99112.95;103491;1315;137923;-67
2021/12/05 13:35:12;;;;;;;45.10;25.60;;;;;;;0.41;72.45;99117.36;103327;1315;106908;-67
2021/12/05 13:37:49;;;;;;;48.00;27.90;;;;;;;0.43;72.64;99126.05;103441;1316;138752;-66
2021/12/05 13:40:25;;;;;;;44.80;26.30;;;;;;;0.42;72.53;99132.57;103197;1315;96516;-67
2021/12/05 13:43:05;;;;;;;46.10;27.70;;;;;;;0.38;72.73;99132.78;103076;1315;137470;-67
2021/12/05 13:45:43;;;;;;;42.00;23.60;;;;;;;0.34;72.89;99134.67;104524;1315;108996;-67
2021/12/05 13:48:27;;;;;;;41.10;23.90;;;;;;;0.33;72.98;99138.80;104171;1315;109082;-67
2021/12/05 13:51:04;;;;;;;42.10;23.70;;;;;;;0.35;73.17;99135.86;103243;1316;138326;-65
2021/12/05 13:53:46;;;;;;;42.40;25.50;;;;;;;0.40;73.36;99135.84;104270;1315;94841;-67
2021/12/05 13:56:25;;;;;;;46.50;26.80;;;;;;;0.47;73.62;99140.73;103276;1315;138170;-66
2021/12/05 13:59:03;;;;;;;55.00;29.60;;;;;;;0.52;73.50;99138.45;103600;1315;107669;-67
2021/12/05 14:01:45;;;;;;;53.90;32.00;;;;;;;0.54;73.40;99136.91;104391;1315;137868;-66
2021/12/05 14:04:28;;;;;;;47.70;28.40;;;;;;;0.56;73.53;99138.42;103797;1314;96546;-66
2021/12/05 14:07:02;;;;;;;44.60;27.40;;;;;;;0.58;73.66;99139.77;102997;1322;139293;-66
2021/12/05 14:09:38;;;;;;;42.90;26.50;;;;;;;0.57;73.43;99136.19;104514;1315;111374;-67
2021/12/05 14:12:14;;;;;;;49.90;27.60;;;;;;;0.55;73.60;99139.46;103469;1314;109867;-66
2021/12/05 14:14:49;;;;;;;46.30;27.00;;;;;;;0.53;73.56;99137.23;102943;1313;138349;-67
2021/12/05 14:17:23;;;;;;;46.70;25.80;;;;;;;0.52;73.75;99133.65;104550;1313;95400;-67
2021/12/05 14:19:59;;;;;;;44.10;25.40;;;;;;;0.52;73.74;99131.59;103357;1317;139620;-67
2021/12/05 14:22:33;;;;;;;48.60;26.70;;;;;;;0.53;73.74;99130.57;103302;1314;111223;-66
2021/12/05 14:25:10;;;;;;;46.30;26.70;;;;;;;0.53;74.06;99131.59;104394;1315;138806;-67
2021/12/05 14:27:44;;;;;;;51.20;28.40;;;;;;;0.55;74.14;99138.27;103356;1314;106777;-66
2021/12/05 14:30:20;;;;;;;52.50;29.50;;;;;;;0.54;74.16;99136.90;103224;1315;96620;-67
2021/12/05 14:32:58;;;;;;;52.80;29.70;;;;;;;0.54;74.19;99133.48;103966;1314;138847;-66
2021/12/05 14:35:33;;;;;;;49.10;29.60;;;;;;;0.52;74.16;99132.45;104442;1317;133663;-67
2021/12/05 14:38:08;;;;;;;52.50;29.90;;;;;;;0.47;74.07;99134.56;104383;1314;137349;-65
2021/12/05 14:40:41;;;;;;;44.70;27.30;;;;;;;0.45;74.18;99134.93;104549;1316;108757;-67
2021/12/05 14:43:14;;;;;;;45.00;27.40;;;;;;;0.44;74.37;99140.40;104482;1314;138803;-67
2021/12/05 14:45:47;;;;;;;48.60;27.40;;;;;;;0.43;74.48;99145.55;104516;1320;94871;-66
2021/12/05 14:48:19;;;;;;;48.70;28.60;;;;;;;0.46;74.55;99147.05;104561;1315;111202;-66
2021/12/05 14:50:53;;;;;;;51.50;29.00;;;;;;;0.50;74.80;99145.98;104176;1319;137715;-66
2021/12/05 14:53:28;;;;;;;52.00;29.70;;;;;;;0.55;74.75;99153.15;103232;1315;107823;-66
2021/12/05 14:56:01;;;;;;;56.90;35.10;;;;;;;0.57;74.83;99153.81;103741;1315;138284;-66
2021/12/05 14:58:33;;;;;;;52.60;30.60;;;;;;;0.59;74.59;99159.61;103232;1315;96507;-65
2021/12/05 15:01:06;;;;;;;48.50;29.30;;;;;;;0.57;74.49;99162.36;104196;1316;139169;-66
2021/12/05 15:03:39;;;;;;;48.00;29.10;;;;;;;0.53;74.55;99161.36;103587;1314;108957;-66
2021/12/05 15:06:12;;;;;;;43.60;27.10;;;;;;;0.50;74.69;99160.36;103175;1315;107685;-66
2021/12/05 15:08:46;;;;;;;45.50;28.10;;;;;;;0.46;74.68;99161.08;103135;1317;138573;-66
2021/12/05 15:11:20;;;;;;;43.40;28.20;;;;;;;0.44;74.73;99163.83;104580;1315;94574;-67
2021/12/05 15:14:01;;;;;;;47.80;29.30;;;;;;;0.43;75.04;99160.59;103608;1316;137966;-66
2021/12/05 15:16:35;;;;;;;46.30;28.90;;;;;;;0.43;75.09;99157.35;103100;1315;109203;-66
2021/12/05 15:19:14;;;;;;;45.50;29.50;;;;;;;0.43;75.11;99161.28;103106;1319;137778;-66
2021/12/05 15:21:47;;;;;;;50.50;30.20;;;;;;;0.41;75.23;99164.55;103272;1316;96517;-66
2021/12/05 15:24:25;;;;;;;53.60;31.70;;;;;;;0.39;75.29;99162.52;103235;1315;96496;-67
2021/12/05 15:27:00;;;;;;;54.90;31.90;;;;;;;0.37;75.30;99169.38;103123;1315;137436;-66
2021/12/05 15:29:32;;;;;;;49.10;29.50;;;;;;;0.35;75.53;99178.27;103137;1316;107929;-66
2021/12/05 15:32:25;;;;;;;49.20;29.60;;;;;;;0.33;75.64;99181.52;104343;1316;139039;-66
2021/12/05 15:34:59;;;;;;;49.70;29.70;;;;;;;0.34;75.52;99177.59;104509;1316;94531;-66
2021/12/05 15:37:32;;;;;;;50.30;31.20;;;;;;;0.37;75.76;99172.80;104451;1315;137917;-67
2021/12/05 15:40:07;;;;;;;53.20;30.50;;;;;;;0.43;75.68;99174.45;104167;1317;111176;-67
2021/12/05 15:42:39;;;;;;;54.80;32.00;;;;;;;0.46;75.86;99178.34;104551;1315;109044;-67
2021/12/05 15:45:14;;;;;;;50.90;31.30;;;;;;;0.48;75.65;99177.98;103060;1316;137406;-66
2021/12/05 15:47:49;;;;;;;53.70;31.90;;;;;;;0.49;75.57;99174.22;103901;1315;94753;-66
2021/12/05 15:50:24;;;;;;;49.40;31.40;;;;;;;0.52;75.79;99175.73;103544;1315;137524;-66
2021/12/05 15:53:00;;;;;;;55.70;32.60;;;;;;;0.51;75.67;99181.38;103312;1314;109113;-66